Thursday, November 15, 2018, 1:58 AM GMT
Back to Local

CYFC, Fredericton, N. B.

Location: , , Canada Lat: 45.867
Local Time: 1:58 AM GMT ( 1:58 GMT) Lon: -66.533
Time Zone: GMT Elev: 55 ft

Show me the last for .
Show Decoded

2018-11-15 01:00 METAR CYFC 150100Z AUTO 29010G20KT 240V310 9SM CLR M09/M14 A3019 RMK SLP226 =
2018-11-15 00:00 METAR CYFC 150000Z AUTO 28011G23KT 240V310 9SM CLR M09/M14 A3014 RMK SLP210 =
2018-11-14 23:00 METAR CYFC 142300Z AUTO 28010G23KT 250V310 9SM FEW039 M09/M15 A3012 RMK PRESRR
                 SLP203 =
2018-11-14 22:00 METAR CYFC 142200Z AUTO 27014G30KT 240V300 9SM SCT040 M09/M15 A3006 RMK SLP181 =
2018-11-14 21:00 METAR CYFC 142100Z AUTO 27015G30KT 240V300 9SM CLR M09/M14 A3001 RMK SLP164 =
2018-11-14 20:00 METAR CYFC 142000Z AUTO 27018G30KT 230V300 9SM FEW044 M08/M15 A2998 RMK SLP155 =
2018-11-14 19:00 METAR CYFC 141900Z AUTO 28025G38KT 250V310 9SM BKN047 BKN055 M08/M16 A2996 RMK
                 SLP147 =
2018-11-14 18:00 METAR CYFC 141800Z AUTO 28019G31KT 9SM BKN045 M08/M16 A2992 RMK SLP135 =
2018-11-14 17:00 METAR CYFC 141700Z AUTO 29016G30KT 9SM BKN039 OVC048 M08/M15 A2991 RMK SLP132 =
2018-11-14 16:00 METAR CYFC 141600Z AUTO 28023G35KT 250V310 9SM BKN037 OVC045 M08/M15 A2988 RMK
                 SLP123 =
2018-11-14 15:59 METAR CYFC 141559Z AUTO 28025G35KT 9SM BKN037 OVC045 M08/M15 A2989 RMK SLP123 =
2018-11-14 15:00 METAR CYFC 141500Z AUTO 27013G29KT 240V310 9SM BKN035 M08/M15 A2987 RMK SLP118 =
2018-11-14 14:02 METAR CYFC 141402Z AUTO 27021G35KT 230V320 9SM BKN035 M09/M15 A2986 RMK SLP115 =
2018-11-14 14:00 METAR CYFC 141400Z AUTO 27011G28KT 230V320 9SM BKN035 M09/M14 A2986 RMK SLP115 =
2018-11-14 13:03 METAR CYFC 141303Z AUTO 28015G30KT 240V320 9SM BKN035 M09/M14 A2984 RMK SLP108 =
2018-11-14 13:00 METAR CYFC 141300Z AUTO 27019G30KT 240V320 9SM -SN BKN035 M09/M14 A2984 RMK
                 SLP108 =
2018-11-14 12:39 METAR CYFC 141239Z AUTO 26014G19KT 9SM -SN OVC035 M09/M14 A2983 RMK SLP106 =
2018-11-14 12:05 METAR CYFC 141205Z AUTO 27019G26KT 240V310 9SM OVC033 M09/M14 A2982 RMK PRESRR
                 SLP099 =
2018-11-14 12:03 METAR CYFC 141203Z AUTO 28009G22KT 240V310 9SM OVC033 M08/M13 A2981 RMK PRESRR
                 SLP098 =
2018-11-14 12:00 METAR CYFC 141200Z AUTO 28011G29KT 240V300 9SM -SN BKN033 M08/M13 A2981 RMK
                 PRESRR SLP097 =
2018-11-14 11:10 METAR CYFC 141110Z AUTO 26017G25KT 240V300 9SM -SN FEW032 SCT039 M08/M12 A2976
                 RMK SLP079 =
2018-11-14 11:00 METAR CYFC 141100Z AUTO 27012G23KT 240V330 9SM SCT032 BKN039 M07/M12 A2976 RMK
                 SLP079 =
2018-11-14 10:53 METAR CYFC 141053Z AUTO 27011G25KT 250V330 9SM BKN032 BKN039 M07/M12 A2975 RMK
                 SLP078 =
2018-11-14 10:26 METAR CYFC 141026Z AUTO 27011G22KT 240V320 9SM -SN BKN032 M07/M11 A2973 RMK
                 PRESRR SLP069 =
2018-11-14 10:20 METAR CYFC 141020Z AUTO 26012G25KT 240V320 9SM SCT030 SCT036 M07/M11 A2972 RMK
                 SLP067 =
2018-11-14 10:00 METAR CYFC 141000Z AUTO 27016G27KT 230V300 9SM -SN SCT030 M06/M10 A2971 RMK
                 SLP062 =
2018-11-14 09:07 METAR CYFC 140907Z AUTO 25016G27KT 9SM -SN FEW027 M05/M08 A2965 RMK PRESRR
                 SLP042 =
2018-11-14 09:00 METAR CYFC 140900Z AUTO 26017G27KT 9SM CLR M04/M08 A2964 RMK SLP040 =
2018-11-14 08:00 METAR CYFC 140800Z AUTO 26017G34KT 240V300 9SM SCT033 M02/M06 A2960 RMK SLP025 =
2018-11-14 07:00 METAR CYFC 140700Z AUTO 28014G30KT 250V320 9SM FEW024 SCT031 01/M01 A2956 RMK
                 SLP011 =
2018-11-14 06:47 METAR CYFC 140647Z AUTO 26019G33KT 220V290 9SM SCT029 SCT037 01/M01 A2955 RMK
                 PRESRR SLP009 =
2018-11-14 06:00 METAR CYFC 140600Z AUTO 27008KT 9SM FEW024 BKN031 01/00 A2952 RMK PCPN 0.5MM
                 PAST HR SLP000 =
2018-11-14 05:41 METAR CYFC 140541Z AUTO 26011G17KT 240V300 9SM SCT020 OVC029 01/00 A2953 RMK
                 SLP002 =
2018-11-14 05:00 METAR CYFC 140500Z AUTO 27007KT 240V300 9SM BKN018 BKN024 OVC065 01/01 A2953 RMK
                 SLP001 =
2018-11-14 04:55 METAR CYFC 140455Z AUTO 27009G15KT 240V300 9SM SCT018 BKN024 OVC070 01/01 A2953
                 RMK SLP001 =
2018-11-14 04:21 METAR CYFC 140421Z AUTO 26008KT 230V300 9SM SCT012 BKN041 OVC065 01/01 A2951 RMK
                 SLP996 =
2018-11-14 04:02 METAR CYFC 140402Z AUTO 28007KT 8SM -RA SCT014 BKN020 OVC030 01/01 A2950 RMK
                 SLP993 =
2018-11-14 04:00 METAR CYFC 140400Z AUTO 28008KT 8SM -RA FEW011 SCT016 OVC030 01/01 A2950 RMK
                 SLP993 =
2018-11-14 03:52 METAR CYFC 140352Z AUTO 27007KT 9SM SCT019 BKN026 OVC031 01/01 A2950 RMK SLP993
                 =
2018-11-14 03:51 METAR CYFC 140351Z AUTO 27007KT 9SM FEW016 BKN021 OVC029 01/01 A2950 RMK SLP993
                 =
2018-11-14 03:48 METAR CYFC 140348Z AUTO 28006KT 9SM SCT021 BKN025 OVC029 01/01 A2950 RMK SLP993
                 =
2018-11-14 03:46 METAR CYFC 140346Z AUTO 28005KT 9SM BKN021 OVC029 01/01 A2950 RMK SLP993 =
2018-11-14 03:42 METAR CYFC 140342Z AUTO 29005KT 9SM SCT021 OVC029 01/01 A2950 RMK SLP992 =
2018-11-14 03:41 METAR CYFC 140341Z AUTO 29005KT 9SM BKN023 OVC031 01/01 A2950 RMK SLP993 =
2018-11-14 03:39 METAR CYFC 140339Z AUTO 29007KT 9SM SCT020 BKN027 OVC031 01/01 A2951 RMK SLP994
                 =
2018-11-14 03:14 METAR CYFC 140314Z AUTO 29009KT 8SM OVC017 01/01 A2952 RMK SLP998 =
2018-11-14 03:11 METAR CYFC 140311Z AUTO 28009KT 6SM -RA BR OVC015 01/01 A2952 RMK SLP999 =
2018-11-14 03:01 METAR CYFC 140301Z AUTO 29009KT 3SM -RA BR FEW009 OVC017 01/01 A2952 RMK SLP999
                 =
2018-11-14 03:00 METAR CYFC 140300Z AUTO 29008KT 2 1/2SM -RA BR FEW009 OVC017 01/01 A2952 RMK
                 SLP999 =
2018-11-14 02:57 METAR CYFC 140257Z AUTO 29008KT 2 1/4SM -RA BR SCT009 OVC017 01/01 A2952 RMK
                 SLP998 =
2018-11-14 02:51 METAR CYFC 140251Z AUTO 29007KT 1 1/2SM -RA BR SCT009 OVC017 01/01 A2952 RMK
                 SLP999 =
2018-11-14 02:36 METAR CYFC 140236Z AUTO 28009KT 250V310 1 3/4SM -RA BR OVC009 01/01 A2952 RMK
                 SLP999 =
2018-11-14 02:35 METAR CYFC 140235Z AUTO 28007KT 250V310 2 1/4SM -RA BR OVC009 01/01 A2952 RMK
                 SLP998 =
2018-11-14 02:31 METAR CYFC 140231Z AUTO 29008G17KT 4SM -RA BR OVC007 01/01 A2952 RMK SLP998 =
2018-11-14 02:30 METAR CYFC 140230Z AUTO 29009G17KT 6SM -RA BR OVC007 01/01 A2952 RMK SLP998 =
2018-11-14 02:28 METAR CYFC 140228Z AUTO 30009G17KT 7SM OVC007 01/ A2951 RMK TD MISG SLP997 =
2018-11-14 02:00 METAR CYFC 140200Z AUTO 01008KT 340V060 6SM -RA BR BKN007 OVC014 01/01 A2944 RMK
                 PRESFR SLP973 =

Support USWX by starting your Amazon purchase here.